createdAt,value
2023-04-30T00:00:00.061Z,6.60
2023-04-30T00:01:00.129Z,6.59
2023-04-30T00:02:00.210Z,6.80
2023-04-30T00:03:00.358Z,6.92
2023-04-30T00:04:00.344Z,7.01
2023-04-30T00:05:00.300Z,6.83
2023-04-30T00:06:00.390Z,7.04
2023-04-30T00:07:00.415Z,7.55
2023-04-30T00:08:00.446Z,7.63
2023-04-30T00:09:00.500Z,7.77
2023-04-30T00:10:00.581Z,7.67
2023-04-30T00:11:00.606Z,7.75
2023-04-30T00:12:00.706Z,7.57
2023-04-30T00:13:00.717Z,8.04
2023-04-30T00:14:00.770Z,8.10
2023-04-30T00:15:00.817Z,8.14
2023-04-30T00:16:00.908Z,8.23
2023-04-30T00:17:00.907Z,8.05
2023-04-30T00:18:00.988Z,7.66
2023-04-30T00:19:00.997Z,8.02
2023-04-30T00:20:01.061Z,7.32
2023-04-30T00:21:01.079Z,7.51
2023-04-30T00:22:01.137Z,7.63
2023-04-30T00:23:01.200Z,7.61
2023-04-30T00:24:01.282Z,7.41
2023-04-30T00:25:01.309Z,7.40
2023-04-30T00:26:01.341Z,7.56
2023-04-30T00:27:01.418Z,7.84
2023-04-30T00:28:01.449Z,7.76
2023-04-30T00:29:01.493Z,7.58
2023-04-30T00:30:01.566Z,7.87
2023-04-30T00:31:01.576Z,7.63
2023-04-30T00:32:01.729Z,8.02
2023-04-30T00:33:01.761Z,7.21
2023-04-30T00:34:01.735Z,7.27
2023-04-30T00:35:01.785Z,7.78
2023-04-30T00:36:01.815Z,7.63
2023-04-30T00:37:01.888Z,7.36
2023-04-30T00:38:01.943Z,7.39
2023-04-30T00:39:01.997Z,7.70
2023-04-30T00:40:02.044Z,8.04
2023-04-30T00:41:02.070Z,7.90
2023-04-30T00:42:02.103Z,7.70
2023-04-30T00:43:02.135Z,7.57
2023-04-30T00:44:02.184Z,7.19
2023-04-30T00:45:02.316Z,6.94
2023-04-30T00:46:02.412Z,7.02
2023-04-30T00:47:02.362Z,7.41
2023-04-30T00:48:02.441Z,7.24
2023-04-30T00:49:02.497Z,7.28
2023-04-30T00:50:02.543Z,7.42
2023-04-30T00:51:02.572Z,7.66
2023-04-30T00:52:02.657Z,7.61
2023-04-30T00:53:02.680Z,7.66
2023-04-30T00:54:02.755Z,8.62
2023-04-30T00:55:02.765Z,8.41
2023-04-30T00:56:02.812Z,8.31
2023-04-30T00:57:02.848Z,8.12
2023-04-30T00:58:02.920Z,8.20
2023-04-30T00:59:02.980Z,8.45
2023-04-30T01:00:03.028Z,8.56
2023-04-30T01:01:03.109Z,8.17
2023-04-30T01:02:03.141Z,8.89
2023-04-30T01:03:03.258Z,8.61
2023-04-30T01:04:03.220Z,8.59
2023-04-30T01:05:03.262Z,8.73
2023-04-30T01:06:03.332Z,8.33
2023-04-30T01:07:03.421Z,8.94
2023-04-30T01:08:03.384Z,8.73
2023-04-30T01:09:03.440Z,8.81
2023-04-30T01:10:03.516Z,8.88
2023-04-30T01:11:03.549Z,8.88
2023-04-30T01:12:03.684Z,8.77
2023-04-30T01:13:03.651Z,8.45
2023-04-30T01:14:03.703Z,8.89
2023-04-30T01:15:03.751Z,8.50
2023-04-30T01:16:03.844Z,8.74
2023-04-30T01:17:03.860Z,8.71
2023-04-30T01:18:03.976Z,8.53
2023-04-30T01:19:04.010Z,8.11
2023-04-30T01:20:04.005Z,8.17
2023-04-30T01:21:04.084Z,7.99
2023-04-30T01:22:04.125Z,7.74
2023-04-30T01:23:04.144Z,7.37
2023-04-30T01:24:04.228Z,7.23
2023-04-30T01:25:04.260Z,7.19
2023-04-30T01:26:04.339Z,7.24
2023-04-30T01:27:04.353Z,7.62
2023-04-30T01:28:04.420Z,7.01
2023-04-30T01:29:04.486Z,7.02
2023-04-30T01:30:04.559Z,7.02
2023-04-30T01:31:04.620Z,7.11
2023-04-30T01:32:04.635Z,6.87
2023-04-30T01:33:04.768Z,7.04
2023-04-30T01:34:04.732Z,6.90
2023-04-30T01:35:04.770Z,7.14
2023-04-30T01:36:04.821Z,7.21
2023-04-30T01:37:04.879Z,7.20
2023-04-30T01:38:04.928Z,6.86
2023-04-30T01:39:05.002Z,6.82
2023-04-30T01:40:05.032Z,7.29
2023-04-30T01:41:05.077Z,6.84
2023-04-30T01:42:05.133Z,6.51
2023-04-30T01:43:05.191Z,6.55
2023-04-30T01:44:05.229Z,6.55
2023-04-30T01:45:05.278Z,6.82
2023-04-30T01:46:05.347Z,6.76
2023-04-30T01:47:05.369Z,6.88
2023-04-30T01:48:05.545Z,6.90
2023-04-30T01:49:05.446Z,6.21
2023-04-30T01:50:05.508Z,6.68
2023-04-30T01:51:05.577Z,6.89
2023-04-30T01:52:05.577Z,6.96
2023-04-30T01:53:05.659Z,7.14
2023-04-30T01:54:05.727Z,7.08
2023-04-30T01:55:05.753Z,7.30
2023-04-30T01:56:05.781Z,7.04
2023-04-30T01:57:05.848Z,7.55
2023-04-30T01:58:05.894Z,7.57
2023-04-30T01:59:05.965Z,6.98
2023-04-30T02:00:06.009Z,7.36
2023-04-30T02:01:06.099Z,6.96
2023-04-30T02:02:06.102Z,7.04
2023-04-30T02:03:06.339Z,7.27
2023-04-30T02:04:06.264Z,7.20
2023-04-30T02:05:06.217Z,7.42
2023-04-30T02:06:06.285Z,6.95
2023-04-30T02:07:06.309Z,7.22
2023-04-30T02:08:06.370Z,6.85
2023-04-30T02:09:06.430Z,7.27
2023-04-30T02:10:06.474Z,7.53
2023-04-30T02:11:06.516Z,7.28
2023-04-30T02:12:06.576Z,7.16
2023-04-30T02:13:06.608Z,7.04
2023-04-30T02:14:06.721Z,6.95
2023-04-30T02:15:06.764Z,7.43
2023-04-30T02:16:06.852Z,7.35
2023-04-30T02:17:06.881Z,7.61
2023-04-30T02:18:06.962Z,7.56
2023-04-30T02:19:06.974Z,7.42
2023-04-30T02:20:07.066Z,7.62
2023-04-30T02:21:07.137Z,7.66
2023-04-30T02:22:07.196Z,7.37
2023-04-30T02:23:07.273Z,7.31
2023-04-30T02:24:07.303Z,7.60
2023-04-30T02:25:07.396Z,7.74
2023-04-30T02:26:07.417Z,7.60
2023-04-30T02:27:07.484Z,7.21
2023-04-30T02:28:07.526Z,7.28
2023-04-30T02:29:07.576Z,7.46
2023-04-30T02:30:07.655Z,7.31
2023-04-30T02:31:07.719Z,7.16
2023-04-30T02:32:07.767Z,7.15
2023-04-30T02:33:07.918Z,7.21
2023-04-30T02:34:07.866Z,7.21
2023-04-30T02:35:07.957Z,7.60
2023-04-30T02:36:07.981Z,7.94
2023-04-30T02:37:08.045Z,7.75
2023-04-30T02:38:08.104Z,7.40
2023-04-30T02:39:08.186Z,7.03
2023-04-30T02:40:08.225Z,7.12
2023-04-30T02:41:08.259Z,6.85
2023-04-30T02:42:08.330Z,6.69
2023-04-30T02:43:08.418Z,7.08
2023-04-30T02:44:08.452Z,7.07
2023-04-30T02:45:08.531Z,6.81
2023-04-30T02:46:08.622Z,6.89
2023-04-30T02:47:08.653Z,7.20
2023-04-30T02:48:08.745Z,6.97
2023-04-30T02:49:08.801Z,6.66
2023-04-30T02:50:08.789Z,6.65
2023-04-30T02:51:08.832Z,6.61
2023-04-30T02:52:08.910Z,6.40
2023-04-30T02:53:08.967Z,6.20
2023-04-30T02:54:09.069Z,6.51
2023-04-30T02:55:09.109Z,6.66
2023-04-30T02:56:09.157Z,6.57
2023-04-30T02:57:09.219Z,6.21
2023-04-30T02:58:09.305Z,6.39
2023-04-30T02:59:09.345Z,6.58
2023-04-30T03:00:09.386Z,6.67
2023-04-30T03:01:09.506Z,6.18
2023-04-30T03:02:09.563Z,6.43
2023-04-30T03:03:09.786Z,6.34
2023-04-30T03:04:09.597Z,6.22
2023-04-30T03:05:09.685Z,6.51
2023-04-30T03:06:09.803Z,6.53
2023-04-30T03:07:09.767Z,6.57
2023-04-30T03:08:09.839Z,6.52
2023-04-30T03:09:09.925Z,6.47
2023-04-30T03:10:09.953Z,6.33
2023-04-30T03:11:10.029Z,6.01
2023-04-30T03:12:10.091Z,6.22
2023-04-30T03:13:10.110Z,6.27
2023-04-30T03:14:10.204Z,5.96
2023-04-30T03:15:10.227Z,5.78
2023-04-30T03:16:10.319Z,5.68
2023-04-30T03:17:10.387Z,5.77
2023-04-30T03:18:10.477Z,5.77
2023-04-30T03:19:10.507Z,5.69
2023-04-30T03:20:10.548Z,5.78
2023-04-30T03:21:10.647Z,5.50
2023-04-30T03:22:10.700Z,5.57
2023-04-30T03:23:10.731Z,5.82
2023-04-30T03:24:10.822Z,5.56
2023-04-30T03:25:10.877Z,5.19
2023-04-30T03:26:10.921Z,5.04
2023-04-30T03:27:10.973Z,5.30
2023-04-30T03:28:11.044Z,5.16
2023-04-30T03:29:11.084Z,5.17
2023-04-30T03:30:11.145Z,5.01
2023-04-30T03:31:11.225Z,5.13
2023-04-30T03:32:11.223Z,5.10
2023-04-30T03:33:11.431Z,5.33
2023-04-30T03:34:11.324Z,5.29
2023-04-30T03:35:11.388Z,5.53
2023-04-30T03:36:11.442Z,5.39
2023-04-30T03:37:12.426Z,5.42
2023-04-30T03:38:11.563Z,5.78
2023-04-30T03:39:11.636Z,5.87
2023-04-30T03:40:11.650Z,6.02
2023-04-30T03:41:11.699Z,5.45
2023-04-30T03:42:11.752Z,5.33
2023-04-30T03:43:11.792Z,5.39
2023-04-30T03:44:11.805Z,5.32
2023-04-30T03:45:11.885Z,5.70
2023-04-30T03:46:11.972Z,5.68
2023-04-30T03:47:11.980Z,5.54
2023-04-30T03:48:12.161Z,5.63
2023-04-30T03:49:12.124Z,5.77
2023-04-30T03:50:12.168Z,5.27
2023-04-30T03:51:12.246Z,5.27
2023-04-30T03:52:12.316Z,5.20
2023-04-30T03:53:12.379Z,5.07
2023-04-30T03:54:12.448Z,5.21
2023-04-30T03:55:12.444Z,5.43
2023-04-30T03:56:12.528Z,5.07
2023-04-30T03:57:12.589Z,4.70
2023-04-30T03:58:12.627Z,4.40
2023-04-30T03:59:12.668Z,4.37
2023-04-30T04:00:12.695Z,4.51
2023-04-30T04:01:12.748Z,4.72
2023-04-30T04:02:12.835Z,4.35
2023-04-30T04:03:12.857Z,4.63
2023-04-30T04:04:12.843Z,5.11
2023-04-30T04:05:12.830Z,4.81
2023-04-30T04:06:12.877Z,5.26
2023-04-30T04:07:12.882Z,4.86
2023-04-30T04:08:12.945Z,4.67
2023-04-30T04:09:12.979Z,4.54
2023-04-30T04:10:13.056Z,4.32
2023-04-30T04:11:13.054Z,4.17
2023-04-30T04:12:13.114Z,4.26
2023-04-30T04:13:13.152Z,4.45
2023-04-30T04:14:13.257Z,4.32
2023-04-30T04:15:13.278Z,4.24
2023-04-30T04:16:13.322Z,4.22
2023-04-30T04:17:13.321Z,4.40
2023-04-30T04:18:13.345Z,4.52
2023-04-30T04:19:13.433Z,4.44
2023-04-30T04:20:14.150Z,4.40
2023-04-30T04:21:13.496Z,4.32
2023-04-30T04:22:13.546Z,4.33
2023-04-30T04:23:13.566Z,4.29
2023-04-30T04:24:13.605Z,4.15
2023-04-30T04:25:13.639Z,3.79
2023-04-30T04:26:13.686Z,4.00
2023-04-30T04:27:13.720Z,4.18
2023-04-30T04:28:13.754Z,4.53
2023-04-30T04:29:13.810Z,4.39
2023-04-30T04:30:13.852Z,4.04
2023-04-30T04:31:13.899Z,4.18
2023-04-30T04:32:13.907Z,4.08
2023-04-30T04:33:13.974Z,4.15
2023-04-30T04:34:13.988Z,3.93
2023-04-30T04:35:14.075Z,3.66
2023-04-30T04:36:14.067Z,3.52
2023-04-30T04:37:14.119Z,3.57
2023-04-30T04:38:14.137Z,3.59
2023-04-30T04:39:14.166Z,3.91
2023-04-30T04:40:14.207Z,4.10
2023-04-30T04:41:14.225Z,4.17
2023-04-30T04:42:14.219Z,3.95
2023-04-30T04:43:14.295Z,3.93
2023-04-30T04:44:14.370Z,3.76
2023-04-30T04:45:14.380Z,3.69
2023-04-30T04:46:14.574Z,3.60
2023-04-30T04:47:14.432Z,3.58
2023-04-30T04:48:14.454Z,3.82
2023-04-30T04:49:14.536Z,3.66
2023-04-30T04:50:14.556Z,3.37
2023-04-30T04:51:14.600Z,3.53
2023-04-30T04:52:14.653Z,3.22
2023-04-30T04:53:14.708Z,3.23
2023-04-30T04:54:14.722Z,2.98
2023-04-30T04:55:14.728Z,3.13
2023-04-30T04:56:14.738Z,3.23
2023-04-30T04:57:14.762Z,3.16
2023-04-30T04:58:14.751Z,2.86
2023-04-30T04:59:14.780Z,2.82
2023-04-30T05:00:14.803Z,2.87
2023-04-30T05:01:14.839Z,2.98
2023-04-30T05:02:14.841Z,2.88
2023-04-30T05:03:14.869Z,2.97
2023-04-30T05:04:14.899Z,2.93
2023-04-30T05:05:14.940Z,2.87
2023-04-30T05:06:14.929Z,2.89
2023-04-30T05:07:14.941Z,3.03
2023-04-30T05:08:14.958Z,2.96
2023-04-30T05:09:14.960Z,2.76
2023-04-30T05:10:14.930Z,2.94
2023-04-30T05:11:15.878Z,2.88
2023-04-30T05:12:14.977Z,2.87
2023-04-30T05:13:15.000Z,2.92
2023-04-30T05:14:15.025Z,2.82
2023-04-30T05:15:15.043Z,2.87
2023-04-30T05:16:15.083Z,2.82
2023-04-30T05:17:15.104Z,2.77
2023-04-30T05:18:15.112Z,2.81
2023-04-30T05:19:15.147Z,2.94
2023-04-30T05:20:15.136Z,3.05
2023-04-30T05:21:15.176Z,2.91
2023-04-30T05:22:15.175Z,2.90
2023-04-30T05:23:15.208Z,2.91
2023-04-30T05:24:15.200Z,2.82
2023-04-30T05:25:15.240Z,2.54
2023-04-30T05:26:15.275Z,2.75
2023-04-30T05:27:15.297Z,2.85
2023-04-30T05:28:15.342Z,2.79
2023-04-30T05:29:15.364Z,2.62
2023-04-30T05:30:15.387Z,2.76
2023-04-30T05:31:15.419Z,2.93
2023-04-30T05:32:15.456Z,2.72
2023-04-30T05:33:15.446Z,2.69
2023-04-30T05:34:16.440Z,2.56
2023-04-30T05:35:15.417Z,2.54
2023-04-30T05:36:15.463Z,2.56
2023-04-30T05:37:15.463Z,2.49
2023-04-30T05:38:15.436Z,2.51
2023-04-30T05:39:15.485Z,2.55
2023-04-30T05:40:15.500Z,2.70
2023-04-30T05:41:15.523Z,2.53
2023-04-30T05:42:15.546Z,2.46
2023-04-30T05:43:15.582Z,2.60
2023-04-30T05:44:15.654Z,2.56
2023-04-30T05:45:15.670Z,2.60
2023-04-30T05:46:15.724Z,2.96
2023-04-30T05:47:15.745Z,2.73
2023-04-30T05:48:15.841Z,2.70
2023-04-30T05:49:15.853Z,2.54
2023-04-30T05:50:15.830Z,2.52
2023-04-30T05:51:15.881Z,2.65
2023-04-30T05:52:15.919Z,2.76
2023-04-30T05:53:15.921Z,2.84
2023-04-30T05:54:15.946Z,2.83
2023-04-30T05:55:15.966Z,2.82
2023-04-30T05:56:15.984Z,2.88
2023-04-30T05:57:16.001Z,2.71
2023-04-30T05:58:16.049Z,2.78
2023-04-30T05:59:16.063Z,2.66
2023-04-30T06:00:16.096Z,2.81
2023-04-30T06:01:16.092Z,2.78
2023-04-30T06:02:16.168Z,2.79
2023-04-30T06:03:16.191Z,2.89
2023-04-30T06:04:16.194Z,2.65
2023-04-30T06:05:16.485Z,2.60
2023-04-30T06:06:16.237Z,2.44
2023-04-30T06:07:16.210Z,2.57
2023-04-30T06:08:16.259Z,2.54
2023-04-30T06:09:16.315Z,2.72
2023-04-30T06:10:16.306Z,2.70
2023-04-30T06:11:16.353Z,2.64
2023-04-30T06:12:16.373Z,2.66
2023-04-30T06:13:16.422Z,2.72
2023-04-30T06:14:16.492Z,2.71
2023-04-30T06:15:16.485Z,2.67
2023-04-30T06:16:16.565Z,2.70
2023-04-30T06:17:16.630Z,2.67
2023-04-30T06:18:16.643Z,2.74
2023-04-30T06:19:16.718Z,2.63
2023-04-30T06:20:16.744Z,2.61
2023-04-30T06:21:16.792Z,2.80
2023-04-30T06:22:16.854Z,2.70
2023-04-30T06:23:16.938Z,2.77
2023-04-30T06:24:17.006Z,2.97
2023-04-30T06:25:17.075Z,2.76
2023-04-30T06:26:17.089Z,2.88
2023-04-30T06:27:17.179Z,2.97
2023-04-30T06:28:17.234Z,2.92
2023-04-30T06:29:17.281Z,2.84
2023-04-30T06:30:17.374Z,2.65
2023-04-30T06:31:17.441Z,2.50
2023-04-30T06:32:17.480Z,2.65
2023-04-30T06:33:17.538Z,2.44
2023-04-30T06:34:17.601Z,2.39
2023-04-30T06:35:17.644Z,2.35
2023-04-30T06:36:17.684Z,2.31
2023-04-30T06:37:17.715Z,2.45
2023-04-30T06:38:17.763Z,2.52
2023-04-30T06:39:17.876Z,2.67
2023-04-30T06:40:17.913Z,2.68
2023-04-30T06:41:17.989Z,2.69
2023-04-30T06:42:18.021Z,2.57
2023-04-30T06:43:18.121Z,2.63
2023-04-30T06:44:18.177Z,2.67
2023-04-30T06:45:18.215Z,2.63
2023-04-30T06:46:18.314Z,2.62
2023-04-30T06:47:18.320Z,2.75
2023-04-30T06:48:18.396Z,2.68
2023-04-30T06:49:18.450Z,2.76
2023-04-30T06:50:18.503Z,2.78
2023-04-30T06:51:18.540Z,2.62
2023-04-30T06:52:18.628Z,2.66
2023-04-30T06:53:18.625Z,2.43
2023-04-30T06:54:18.683Z,2.46
2023-04-30T06:55:18.757Z,2.30
2023-04-30T06:56:18.775Z,2.28
2023-04-30T06:57:18.862Z,2.20
2023-04-30T06:58:18.870Z,2.16
2023-04-30T06:59:18.967Z,2.54
2023-04-30T07:00:19.007Z,2.47
2023-04-30T07:01:19.090Z,2.57
2023-04-30T07:02:21.777Z,2.39
2023-04-30T07:03:19.199Z,2.42
2023-04-30T07:04:19.126Z,2.38
2023-04-30T07:05:19.086Z,2.32
2023-04-30T07:06:19.146Z,2.26
2023-04-30T07:07:19.094Z,2.26
2023-04-30T07:08:19.094Z,2.24
2023-04-30T07:09:19.069Z,2.27
2023-04-30T07:10:19.085Z,2.12
2023-04-30T07:11:19.053Z,2.08
2023-04-30T07:12:19.065Z,2.16
2023-04-30T07:13:19.039Z,1.94
2023-04-30T07:14:19.044Z,1.95
2023-04-30T07:15:19.044Z,2.12
2023-04-30T07:16:19.088Z,2.19
2023-04-30T07:17:19.038Z,2.12
2023-04-30T07:18:19.018Z,2.22
2023-04-30T07:19:19.013Z,2.03
2023-04-30T07:20:19.013Z,1.95
2023-04-30T07:21:18.967Z,1.94
2023-04-30T07:22:18.966Z,1.97
2023-04-30T07:23:18.965Z,1.93
2023-04-30T07:24:18.960Z,1.86
2023-04-30T07:25:18.960Z,1.93
2023-04-30T07:26:18.975Z,1.95
2023-04-30T07:27:18.947Z,2.00
2023-04-30T07:28:18.964Z,2.02
2023-04-30T07:29:18.916Z,2.18
2023-04-30T07:30:18.924Z,2.14
2023-04-30T07:31:18.947Z,2.13
2023-04-30T07:32:18.932Z,2.10
2023-04-30T07:33:18.921Z,2.17
2023-04-30T07:34:18.926Z,2.10
2023-04-30T07:35:18.906Z,2.22
2023-04-30T07:36:18.907Z,2.16
2023-04-30T07:37:18.920Z,2.19
2023-04-30T07:38:18.869Z,2.25
2023-04-30T07:39:18.901Z,2.13
2023-04-30T07:40:29.127Z,2.17
2023-04-30T07:41:19.857Z,2.17
2023-04-30T07:42:18.837Z,2.02
2023-04-30T07:43:18.929Z,2.09
2023-04-30T07:44:18.893Z,2.10
2023-04-30T07:45:18.873Z,2.19
2023-04-30T07:46:18.961Z,2.21
2023-04-30T07:47:18.917Z,2.20
2023-04-30T07:48:18.821Z,2.21
2023-04-30T07:49:18.837Z,2.01
2023-04-30T07:50:18.812Z,2.12
2023-04-30T07:51:18.846Z,1.92
2023-04-30T07:52:18.897Z,1.91
2023-04-30T07:53:18.927Z,2.00
2023-04-30T07:54:18.972Z,1.87
2023-04-30T07:55:19.043Z,1.98
2023-04-30T07:56:19.055Z,2.07
2023-04-30T07:57:19.085Z,2.01
2023-04-30T07:58:19.119Z,2.09
2023-04-30T07:59:19.180Z,2.00
2023-04-30T08:00:19.224Z,2.20
2023-04-30T08:01:19.370Z,1.97
2023-04-30T08:02:19.321Z,1.94
2023-04-30T08:03:19.428Z,1.88
2023-04-30T08:04:19.417Z,1.82
2023-04-30T08:05:19.487Z,1.84
2023-04-30T08:06:19.579Z,1.77
2023-04-30T08:07:19.522Z,1.83
2023-04-30T08:08:19.583Z,1.78
2023-04-30T08:09:19.595Z,1.68
2023-04-30T08:10:19.645Z,1.54
2023-04-30T08:11:19.712Z,1.43
2023-04-30T08:12:19.731Z,1.42
2023-04-30T08:13:19.784Z,1.50
2023-04-30T08:14:19.826Z,1.56
2023-04-30T08:15:19.879Z,1.55
2023-04-30T08:16:19.938Z,1.57
2023-04-30T08:17:19.943Z,1.62
2023-04-30T08:18:19.994Z,1.57
2023-04-30T08:19:20.030Z,1.46
2023-04-30T08:20:20.142Z,1.41
2023-04-30T08:21:20.088Z,1.33
2023-04-30T08:22:20.138Z,1.35
2023-04-30T08:23:20.211Z,1.36
2023-04-30T08:24:20.249Z,1.28
2023-04-30T08:25:20.303Z,1.20
2023-04-30T08:26:20.302Z,1.19
2023-04-30T08:27:20.343Z,1.20
2023-04-30T08:28:20.389Z,1.33
2023-04-30T08:29:20.439Z,1.24
2023-04-30T08:30:20.494Z,1.27
2023-04-30T08:31:20.544Z,1.15
2023-04-30T08:32:20.696Z,1.21
2023-04-30T08:33:20.704Z,1.14
2023-04-30T08:34:20.641Z,1.17
2023-04-30T08:35:20.661Z,1.16
2023-04-30T08:36:20.714Z,1.11
2023-04-30T08:37:20.765Z,1.09
2023-04-30T08:38:20.761Z,1.11
2023-04-30T08:39:20.831Z,1.23
2023-04-30T08:40:21.058Z,1.28
2023-04-30T08:41:20.888Z,1.28
2023-04-30T08:42:21.503Z,1.35
2023-04-30T08:43:20.964Z,1.44
2023-04-30T08:44:21.038Z,1.37
2023-04-30T08:45:21.049Z,1.47
2023-04-30T08:46:21.127Z,1.51
2023-04-30T08:47:21.128Z,1.45
2023-04-30T08:48:21.186Z,1.38
2023-04-30T08:50:21.241Z,1.46
2023-04-30T08:51:21.245Z,1.56
2023-04-30T08:52:21.296Z,1.56
2023-04-30T08:53:21.305Z,1.46
2023-04-30T08:54:21.365Z,1.54
2023-04-30T08:55:21.413Z,1.46
2023-04-30T08:56:22.545Z,1.44
2023-04-30T08:57:21.452Z,1.32
2023-04-30T08:58:21.483Z,1.29
2023-04-30T08:59:21.532Z,1.36
2023-04-30T09:00:21.565Z,1.37
2023-04-30T09:01:21.610Z,1.35
2023-04-30T09:02:21.676Z,1.47
2023-04-30T09:03:21.751Z,1.37
2023-04-30T09:04:21.676Z,1.48
2023-04-30T09:05:21.720Z,1.37
2023-04-30T09:06:21.831Z,1.30
2023-04-30T09:07:21.783Z,1.33
2023-04-30T09:08:21.792Z,1.32
2023-04-30T09:09:21.813Z,1.34
2023-04-30T09:10:21.860Z,1.26
2023-04-30T09:11:21.905Z,1.34
2023-04-30T09:12:22.042Z,1.16
2023-04-30T09:13:21.927Z,1.20
2023-04-30T09:14:21.958Z,1.16
2023-04-30T09:15:21.993Z,1.06
2023-04-30T09:16:22.118Z,0.94
2023-04-30T09:17:22.041Z,0.95
2023-04-30T09:18:22.065Z,0.98
2023-04-30T09:19:22.062Z,1.10
2023-04-30T09:20:22.097Z,1.06
2023-04-30T09:21:22.109Z,1.05
2023-04-30T09:22:22.195Z,1.03
2023-04-30T09:23:22.108Z,0.98
2023-04-30T09:24:22.135Z,1.08
2023-04-30T09:25:22.168Z,1.04
2023-04-30T09:26:22.206Z,1.05
2023-04-30T09:27:22.165Z,0.99
2023-04-30T09:28:22.182Z,0.98
2023-04-30T09:29:22.200Z,0.99
2023-04-30T09:30:22.245Z,1.05
2023-04-30T09:31:22.276Z,1.05
2023-04-30T09:32:22.258Z,1.09
2023-04-30T09:33:22.272Z,1.07
2023-04-30T09:34:22.245Z,1.00
2023-04-30T09:35:22.257Z,1.00
2023-04-30T09:36:22.277Z,0.99
2023-04-30T09:37:22.263Z,0.89
2023-04-30T09:38:22.269Z,0.94
2023-04-30T09:39:22.301Z,0.94
2023-04-30T09:40:22.313Z,0.88
2023-04-30T09:41:22.314Z,0.81
2023-04-30T09:42:22.307Z,0.82
2023-04-30T09:43:22.340Z,0.91
2023-04-30T09:44:22.313Z,1.00
2023-04-30T09:45:22.312Z,0.90
2023-04-30T09:46:22.353Z,0.84
2023-04-30T09:47:22.395Z,0.87
2023-04-30T09:48:22.503Z,0.90
2023-04-30T09:49:22.348Z,0.97
2023-04-30T09:50:22.355Z,0.95
2023-04-30T09:51:22.352Z,0.96
2023-04-30T09:52:22.363Z,0.86
2023-04-30T09:53:22.355Z,0.83
2023-04-30T09:54:22.357Z,0.86
2023-04-30T09:55:22.384Z,1.00
2023-04-30T09:56:22.385Z,1.05
2023-04-30T09:57:22.383Z,0.89
2023-04-30T09:58:22.364Z,0.84
2023-04-30T09:59:22.365Z,0.96
2023-04-30T10:00:22.373Z,0.97
2023-04-30T10:01:22.388Z,0.89
2023-04-30T10:02:22.437Z,0.81
2023-04-30T10:03:22.378Z,0.80
2023-04-30T10:04:22.495Z,0.79
2023-04-30T10:05:22.403Z,0.78
2023-04-30T10:06:22.472Z,0.69
2023-04-30T10:07:23.022Z,0.76
2023-04-30T10:08:22.370Z,0.71
2023-04-30T10:09:22.350Z,0.73
2023-04-30T10:10:22.361Z,0.75
2023-04-30T10:11:22.377Z,0.83
2023-04-30T10:12:22.405Z,0.79
2023-04-30T10:13:22.364Z,0.70
2023-04-30T10:14:22.385Z,0.86
2023-04-30T10:15:22.398Z,0.70
2023-04-30T10:16:22.425Z,0.64
2023-04-30T10:17:22.387Z,0.73
2023-04-30T10:18:22.366Z,0.73
2023-04-30T10:19:22.369Z,0.57
2023-04-30T10:20:22.395Z,0.50
2023-04-30T10:21:22.387Z,0.56
2023-04-30T10:22:22.387Z,0.53
2023-04-30T10:23:22.387Z,0.60
2023-04-30T10:24:22.383Z,0.60
2023-04-30T10:25:22.398Z,0.59
2023-04-30T10:26:22.381Z,0.57
2023-04-30T10:27:23.057Z,0.66
2023-04-30T10:28:22.417Z,0.62
2023-04-30T10:29:22.394Z,0.66
2023-04-30T10:30:22.394Z,0.68
2023-04-30T10:31:22.437Z,0.76
2023-04-30T10:32:22.542Z,0.81
2023-04-30T10:33:22.490Z,0.70
2023-04-30T10:34:22.422Z,0.70
2023-04-30T10:35:22.466Z,0.72
2023-04-30T10:36:22.418Z,0.76
2023-04-30T10:37:22.465Z,0.70
2023-04-30T10:38:22.526Z,0.65
2023-04-30T10:39:22.488Z,0.73
2023-04-30T10:40:22.515Z,0.80
2023-04-30T10:41:22.557Z,0.73
2023-04-30T10:42:22.611Z,0.78
2023-04-30T10:43:22.662Z,0.82
2023-04-30T10:44:22.683Z,0.67
2023-04-30T10:45:22.770Z,0.60
2023-04-30T10:46:22.827Z,0.60
2023-04-30T10:47:22.803Z,0.57
2023-04-30T10:48:22.909Z,0.60
2023-04-30T10:49:22.909Z,0.75
2023-04-30T10:50:22.992Z,0.68
2023-04-30T10:51:23.059Z,0.57
2023-04-30T10:52:23.133Z,0.53
2023-04-30T10:53:23.171Z,0.50
2023-04-30T10:54:23.247Z,0.57
2023-04-30T10:55:23.258Z,0.62
2023-04-30T10:56:23.351Z,0.69
2023-04-30T10:57:23.361Z,0.72
2023-04-30T10:58:23.536Z,0.95
2023-04-30T10:59:23.467Z,1.00
2023-04-30T11:00:23.577Z,0.95
2023-04-30T11:01:23.641Z,0.93
2023-04-30T11:02:23.670Z,0.90
2023-04-30T11:03:23.705Z,0.73
2023-04-30T11:04:23.852Z,0.70
2023-04-30T11:05:23.866Z,0.75
2023-04-30T11:06:23.928Z,0.82
2023-04-30T11:07:23.993Z,0.93
2023-04-30T11:08:23.999Z,0.92
2023-04-30T11:09:24.098Z,0.98
2023-04-30T11:10:24.145Z,0.75
2023-04-30T11:11:24.182Z,0.74
2023-04-30T11:12:24.286Z,0.74
2023-04-30T11:13:24.343Z,0.69
2023-04-30T11:14:24.364Z,0.74
2023-04-30T11:15:24.422Z,0.70
2023-04-30T11:16:24.526Z,0.62
2023-04-30T11:17:24.578Z,0.58
2023-04-30T11:18:24.572Z,0.60
2023-04-30T11:19:24.649Z,0.62
2023-04-30T11:20:24.711Z,0.71
2023-04-30T11:21:24.738Z,0.66
2023-04-30T11:22:24.806Z,0.72
2023-04-30T11:23:32.206Z,0.67
2023-04-30T11:24:27.518Z,0.67
2023-04-30T11:25:24.818Z,0.59
2023-04-30T11:26:24.830Z,0.54
2023-04-30T11:27:24.821Z,0.61
2023-04-30T11:28:24.817Z,0.69
2023-04-30T11:29:24.826Z,0.71
2023-04-30T11:30:24.825Z,0.58
2023-04-30T11:31:24.821Z,0.66
2023-04-30T11:32:24.832Z,0.75
2023-04-30T11:33:24.779Z,0.98
2023-04-30T11:34:24.765Z,0.84
2023-04-30T11:35:24.767Z,0.94
2023-04-30T11:36:24.764Z,0.95
2023-04-30T11:37:24.773Z,0.94
2023-04-30T11:38:24.751Z,0.85
2023-04-30T11:39:24.742Z,1.10
2023-04-30T11:40:24.744Z,1.21
2023-04-30T11:41:24.729Z,1.18
2023-04-30T11:42:24.741Z,1.22
2023-04-30T11:43:24.724Z,1.12
2023-04-30T11:44:24.731Z,1.45
2023-04-30T11:45:24.685Z,1.31
2023-04-30T11:46:24.721Z,1.35
2023-04-30T11:47:24.692Z,1.09
2023-04-30T11:48:24.678Z,1.13
2023-04-30T11:49:24.679Z,1.18
2023-04-30T11:50:24.658Z,1.06
2023-04-30T11:51:24.659Z,1.19
2023-04-30T11:52:24.644Z,1.13
2023-04-30T11:53:24.636Z,1.27
2023-04-30T11:54:24.643Z,0.95
2023-04-30T11:55:24.648Z,0.83
2023-04-30T11:56:24.675Z,0.82
2023-04-30T11:57:24.604Z,0.92
2023-04-30T11:58:24.629Z,1.09
2023-04-30T11:59:24.604Z,0.94
2023-04-30T12:00:24.604Z,1.06
2023-04-30T12:01:24.618Z,1.14
2023-04-30T12:02:24.826Z,0.85
2023-04-30T12:03:24.753Z,0.80
2023-04-30T12:04:24.663Z,0.56
2023-04-30T12:05:24.584Z,0.68
2023-04-30T12:06:24.655Z,0.77
2023-04-30T12:07:24.568Z,1.07
2023-04-30T12:08:24.570Z,1.19
2023-04-30T12:09:24.562Z,1.02
2023-04-30T12:10:24.606Z,1.13
2023-04-30T12:11:24.617Z,1.28
2023-04-30T12:12:24.629Z,1.54
2023-04-30T12:13:24.670Z,1.84
2023-04-30T12:14:24.660Z,1.85
2023-04-30T12:15:24.688Z,1.84
2023-04-30T12:16:24.754Z,1.80
2023-04-30T12:17:24.795Z,1.27
2023-04-30T12:18:24.869Z,1.33
2023-04-30T12:19:24.851Z,1.29
2023-04-30T12:20:24.896Z,1.46
2023-04-30T12:21:24.893Z,1.08
2023-04-30T12:22:24.887Z,1.15
2023-04-30T12:23:24.879Z,1.24
2023-04-30T12:24:24.950Z,1.24
2023-04-30T12:25:25.041Z,1.44
2023-04-30T12:26:25.119Z,1.53
2023-04-30T12:27:25.232Z,1.31
2023-04-30T12:28:25.228Z,0.99
2023-04-30T12:29:25.207Z,0.80
2023-04-30T12:30:25.256Z,0.84
2023-04-30T12:31:25.239Z,0.89
2023-04-30T12:32:25.344Z,0.84
2023-04-30T12:33:25.290Z,0.96
2023-04-30T12:34:25.303Z,0.97
2023-04-30T12:35:25.386Z,1.10
2023-04-30T12:36:25.295Z,1.29
2023-04-30T12:37:25.266Z,1.32
2023-04-30T12:38:25.278Z,1.27
2023-04-30T12:39:25.362Z,1.42
2023-04-30T12:40:25.432Z,1.30
2023-04-30T12:41:25.523Z,1.32
2023-04-30T12:42:25.635Z,1.37
2023-04-30T12:43:25.653Z,1.24
2023-04-30T12:44:25.657Z,1.17
2023-04-30T12:45:25.652Z,1.17
2023-04-30T12:46:25.790Z,1.28
2023-04-30T12:47:25.704Z,1.37
2023-04-30T12:48:25.731Z,1.35
2023-04-30T12:49:25.762Z,1.35
2023-04-30T12:50:25.785Z,1.47
2023-04-30T12:51:25.832Z,1.53
2023-04-30T12:52:25.918Z,1.52
2023-04-30T12:53:26.011Z,1.31
2023-04-30T12:54:26.072Z,1.17
2023-04-30T12:55:26.069Z,1.05
2023-04-30T12:56:26.118Z,0.95
2023-04-30T12:57:26.208Z,0.94
2023-04-30T12:58:26.252Z,0.84
2023-04-30T12:59:26.305Z,0.77
2023-04-30T13:00:26.361Z,0.85
2023-04-30T13:01:26.566Z,0.89
2023-04-30T13:02:26.557Z,0.93
2023-04-30T13:03:26.650Z,0.99
2023-04-30T13:04:26.613Z,1.10
2023-04-30T13:05:26.636Z,0.96
2023-04-30T13:06:26.760Z,0.96
2023-04-30T13:07:26.755Z,0.99
2023-04-30T13:08:26.828Z,1.14
2023-04-30T13:09:26.878Z,1.20
2023-04-30T13:10:26.961Z,1.28
2023-04-30T13:11:27.677Z,1.38
2023-04-30T13:12:27.061Z,1.45
2023-04-30T13:13:27.110Z,1.50
2023-04-30T13:14:27.161Z,1.49
2023-04-30T13:15:27.217Z,1.20
2023-04-30T13:16:27.395Z,1.41
2023-04-30T13:17:27.355Z,1.52
2023-04-30T13:18:27.354Z,1.56
2023-04-30T13:19:27.394Z,1.66